createdAt,value
2023-04-29T00:00:18.759Z,78.25
2023-04-29T00:02:46.391Z,78.64
2023-04-29T00:05:13.730Z,78.63
2023-04-29T00:07:40.794Z,78.21
2023-04-29T00:10:08.168Z,78.02
2023-04-29T00:12:35.238Z,78.09
2023-04-29T00:15:03.306Z,77.76
2023-04-29T00:17:30.371Z,77.48
2023-04-29T00:20:00.381Z,78.37
2023-04-29T00:22:28.416Z,77.46
2023-04-29T00:24:55.284Z,77.28
2023-04-29T00:27:22.707Z,77.84
2023-04-29T00:29:52.177Z,77.64
2023-04-29T00:32:19.242Z,77.36
2023-04-29T00:34:46.243Z,78.34
2023-04-29T00:37:16.620Z,78.88
2023-04-29T00:39:43.693Z,79.35
2023-04-29T00:42:11.877Z,79.21
2023-04-29T00:44:39.532Z,78.37
2023-04-29T00:47:11.573Z,78.40
2023-04-29T00:49:42.162Z,78.58
2023-04-29T00:52:12.590Z,78.74
2023-04-29T00:54:42.532Z,78.20
2023-04-29T00:57:17.434Z,78.22
2023-04-29T00:59:45.808Z,78.21
2023-04-29T01:02:13.965Z,78.21
2023-04-29T01:04:41.198Z,78.41
2023-04-29T01:07:19.670Z,78.50
2023-04-29T01:10:15.097Z,77.97
2023-04-29T01:12:49.666Z,78.05
2023-04-29T01:19:18.090Z,77.59
2023-04-29T01:21:49.157Z,77.45
2023-04-29T01:24:17.230Z,77.12
2023-04-29T01:26:55.236Z,77.14
2023-04-29T01:30:00.279Z,77.03
2023-04-29T01:32:42.551Z,77.07
2023-04-29T01:35:25.099Z,76.78
2023-04-29T01:38:14.834Z,76.84
2023-04-29T01:40:56.709Z,76.89
2023-04-29T01:43:30.399Z,78.24
2023-04-29T01:46:01.311Z,77.07
2023-04-29T01:48:28.650Z,76.96
2023-04-29T01:50:55.801Z,77.04
2023-04-29T01:53:22.752Z,76.92
2023-04-29T01:55:50.185Z,76.47
2023-04-29T01:58:20.123Z,76.66
2023-04-29T02:00:56.028Z,76.56
2023-04-29T02:03:24.014Z,77.28
2023-04-29T02:05:57.722Z,76.35
2023-04-29T02:08:24.924Z,77.23
2023-04-29T02:10:55.018Z,76.74
2023-04-29T02:13:40.203Z,76.68
2023-04-29T02:16:12.201Z,76.44
2023-04-29T02:18:43.732Z,76.59
2023-04-29T02:21:10.781Z,79.60
2023-04-29T02:23:37.922Z,78.14
2023-04-29T02:26:07.845Z,77.48
2023-04-29T02:28:35.217Z,77.14
2023-04-29T02:31:03.135Z,76.96
2023-04-29T02:33:32.869Z,77.03
2023-04-29T02:36:00.602Z,76.83
2023-04-29T02:38:27.573Z,76.73
2023-04-29T02:40:54.488Z,77.13
2023-04-29T02:43:21.871Z,76.97
2023-04-29T02:45:48.882Z,76.63
2023-04-29T02:48:18.122Z,76.54
2023-04-29T02:50:47.996Z,76.41
2023-04-29T02:53:15.051Z,76.53
2023-04-29T02:55:42.175Z,77.21
2023-04-29T02:58:10.496Z,76.71
2023-04-29T03:00:37.456Z,76.44
2023-04-29T03:03:05.410Z,76.40
2023-04-29T03:05:33.128Z,77.08
2023-04-29T03:07:59.933Z,76.92
2023-04-29T03:10:29.784Z,76.76
2023-04-29T03:12:56.758Z,76.43
2023-04-29T03:15:23.918Z,76.54
2023-04-29T03:17:51.678Z,78.46
2023-04-29T03:20:19.625Z,78.89
2023-04-29T03:22:46.841Z,78.26
2023-04-29T03:25:16.635Z,77.49
2023-04-29T03:27:43.848Z,77.17
2023-04-29T03:30:11.247Z,76.91
2023-04-29T03:32:45.872Z,77.98
2023-04-29T03:35:15.524Z,77.69
2023-04-29T03:37:54.288Z,77.12
2023-04-29T03:40:24.668Z,76.62
2023-04-29T03:42:51.846Z,76.56
2023-04-29T03:45:22.067Z,76.38
2023-04-29T03:47:50.696Z,79.86
2023-04-29T03:50:17.845Z,79.25
2023-04-29T03:52:45.228Z,77.90
2023-04-29T03:55:15.783Z,77.27
2023-04-29T03:57:44.149Z,77.08
2023-04-29T04:00:13.062Z,76.85
2023-04-29T04:02:51.386Z,76.36
2023-04-29T04:05:21.566Z,76.46
2023-04-29T04:07:53.966Z,76.33
2023-04-29T04:10:39.536Z,77.29
2023-04-29T04:13:16.420Z,77.76
2023-04-29T04:15:49.414Z,76.75
2023-04-29T04:18:16.428Z,76.45
2023-04-29T04:20:43.602Z,76.11
2023-04-29T04:23:10.763Z,76.04
2023-04-29T04:25:38.273Z,75.75
2023-04-29T04:28:22.566Z,77.25
2023-04-29T04:30:58.803Z,76.72
2023-04-29T04:33:27.528Z,77.15
2023-04-29T04:35:58.103Z,77.57
2023-04-29T04:38:26.511Z,77.87
2023-04-29T04:40:55.047Z,77.80
2023-04-29T04:43:36.356Z,79.22
2023-04-29T04:46:14.464Z,78.39
2023-04-29T04:49:03.903Z,77.29
2023-04-29T04:51:35.493Z,76.22
2023-04-29T04:54:02.690Z,76.71
2023-04-29T04:56:34.213Z,76.83
2023-04-29T04:59:02.146Z,77.71
2023-04-29T05:01:30.768Z,77.48
2023-04-29T05:03:58.519Z,76.84
2023-04-29T05:06:25.809Z,77.02
2023-04-29T05:08:52.726Z,76.85
2023-04-29T05:11:21.254Z,76.74
2023-04-29T05:14:20.309Z,78.59
2023-04-29T05:16:47.917Z,76.64
2023-04-29T05:19:15.262Z,78.68
2023-04-29T05:21:42.145Z,78.45
2023-04-29T05:24:14.049Z,76.49
2023-04-29T05:26:47.164Z,75.91
2023-04-29T05:29:15.869Z,75.14
2023-04-29T05:35:44.285Z,74.87
2023-04-29T05:38:11.209Z,72.36
2023-04-29T05:40:56.148Z,71.74
2023-04-29T05:43:23.261Z,65.57
2023-04-29T05:45:51.128Z,65.96
2023-04-29T05:48:25.686Z,62.62
2023-04-29T05:50:54.112Z,61.73
2023-04-29T05:53:21.351Z,60.99
2023-04-29T05:55:51.284Z,59.68
2023-04-29T05:58:45.223Z,59.40
2023-04-29T06:01:15.253Z,57.31
2023-04-29T06:03:42.337Z,60.31
2023-04-29T06:06:34.612Z,58.96
2023-04-29T06:09:28.240Z,57.95
2023-04-29T06:12:01.316Z,60.61
2023-04-29T06:14:31.226Z,58.85
2023-04-29T06:16:58.920Z,64.80
2023-04-29T06:19:28.545Z,61.81
2023-04-29T06:21:55.665Z,60.29
2023-04-29T06:24:23.022Z,61.51
2023-04-29T06:26:50.075Z,62.53
2023-04-29T06:29:17.263Z,62.92
2023-04-29T06:31:44.530Z,67.74
2023-04-29T06:34:13.282Z,65.48
2023-04-29T06:37:09.287Z,63.49
2023-04-29T06:39:59.273Z,60.80
2023-04-29T06:43:02.321Z,62.27
2023-04-29T06:45:55.737Z,63.54
2023-04-29T06:48:30.238Z,64.23
2023-04-29T06:50:58.704Z,62.81
2023-04-29T06:53:27.354Z,64.78
2023-04-29T06:55:57.084Z,63.54
2023-04-29T06:58:24.075Z,62.70
2023-04-29T07:00:51.529Z,62.74
2023-04-29T07:03:20.465Z,61.51
2023-04-29T07:05:48.039Z,61.45
2023-04-29T07:08:15.056Z,60.94
2023-04-29T07:10:42.119Z,63.63
2023-04-29T07:13:59.093Z,63.77
2023-04-29T07:16:30.611Z,66.67
2023-04-29T07:18:57.600Z,64.64
2023-04-29T07:21:25.936Z,65.04
2023-04-29T07:23:53.878Z,63.99
2023-04-29T07:26:21.560Z,64.76
2023-04-29T07:28:55.437Z,65.32
2023-04-29T07:31:25.334Z,64.57
2023-04-29T07:33:53.280Z,64.76
2023-04-29T07:36:21.222Z,66.01
2023-04-29T07:38:48.233Z,63.57
2023-04-29T07:41:15.198Z,65.05
2023-04-29T07:44:02.334Z,65.05
2023-04-29T07:46:29.409Z,66.24
2023-04-29T07:48:56.437Z,65.49
2023-04-29T07:51:23.518Z,64.97
2023-04-29T07:53:54.350Z,63.90
2023-04-29T07:56:21.941Z,64.59
2023-04-29T07:58:53.279Z,64.83
2023-04-29T08:01:21.603Z,64.24
2023-04-29T08:03:48.845Z,64.65
2023-04-29T08:06:24.022Z,64.52
2023-04-29T08:08:51.488Z,64.67
2023-04-29T08:11:20.651Z,67.71
2023-04-29T08:13:48.293Z,66.27
2023-04-29T08:16:21.728Z,67.39
2023-04-29T08:18:48.691Z,66.32
2023-04-29T08:21:17.756Z,66.85
2023-04-29T08:23:44.702Z,65.29
2023-04-29T08:26:12.923Z,65.44
2023-04-29T08:28:42.826Z,68.03
2023-04-29T08:31:17.050Z,65.32
2023-04-29T08:33:46.766Z,65.40
2023-04-29T08:36:13.942Z,64.19
2023-04-29T08:38:40.998Z,64.47
2023-04-29T08:41:12.158Z,63.41
2023-04-29T08:43:41.077Z,61.74
2023-04-29T08:46:08.491Z,64.19
2023-04-29T08:48:39.249Z,65.15
2023-04-29T08:51:06.291Z,63.59
2023-04-29T08:53:37.159Z,66.24
2023-04-29T09:00:00.326Z,66.32
2023-04-29T09:02:27.775Z,65.44
2023-04-29T09:05:13.787Z,68.30
2023-04-29T09:07:42.334Z,67.57
2023-04-29T09:10:10.860Z,66.05
2023-04-29T09:12:37.769Z,64.69
2023-04-29T09:15:05.329Z,67.04
2023-04-29T09:17:42.234Z,65.58
2023-04-29T09:20:30.407Z,63.81
2023-04-29T09:23:03.638Z,63.93
2023-04-29T09:25:31.344Z,63.20
2023-04-29T09:28:15.552Z,63.70
2023-04-29T09:30:47.180Z,62.03
2023-04-29T09:33:15.403Z,64.37
2023-04-29T09:35:42.342Z,63.25
2023-04-29T09:38:16.391Z,61.91
2023-04-29T09:40:57.268Z,64.91
2023-04-29T09:43:24.894Z,61.80
2023-04-29T09:45:51.995Z,63.76
2023-04-29T09:48:19.016Z,63.46
2023-04-29T09:51:04.148Z,61.58
2023-04-29T09:53:32.186Z,60.09
2023-04-29T09:56:02.844Z,60.13
2023-04-29T09:58:34.031Z,58.47
2023-04-29T10:01:04.915Z,58.26
2023-04-29T10:07:31.425Z,57.64
2023-04-29T10:10:00.470Z,57.68
2023-04-29T10:12:29.512Z,57.48
2023-04-29T10:15:28.580Z,57.81
2023-04-29T10:18:04.583Z,57.15
2023-04-29T10:20:31.929Z,56.77
2023-04-29T10:23:02.900Z,55.11
2023-04-29T10:25:29.883Z,55.93
2023-04-29T10:28:00.857Z,57.46
2023-04-29T10:30:27.988Z,59.32
2023-04-29T10:32:57.189Z,56.78
2023-04-29T10:35:26.046Z,55.95
2023-04-29T10:37:57.176Z,56.66
2023-04-29T10:41:02.995Z,59.41
2023-04-29T10:43:31.990Z,61.12
2023-04-29T10:46:17.994Z,58.83
2023-04-29T10:48:46.114Z,58.37
2023-04-29T10:51:15.489Z,57.43
2023-04-29T10:54:07.791Z,58.78
2023-04-29T10:56:57.712Z,59.20
2023-04-29T10:59:34.219Z,57.81
2023-04-29T11:02:01.684Z,55.90
2023-04-29T11:04:31.461Z,57.02
2023-04-29T11:07:03.178Z,58.79
2023-04-29T11:09:37.372Z,57.47
2023-04-29T11:12:09.603Z,56.97
2023-04-29T11:14:38.794Z,54.44
2023-04-29T11:17:08.722Z,55.93
2023-04-29T11:19:37.249Z,54.14
2023-04-29T11:22:19.170Z,54.03
2023-04-29T11:24:57.153Z,56.11
2023-04-29T11:27:26.432Z,54.84
2023-04-29T11:30:01.498Z,54.89
2023-04-29T11:32:33.789Z,56.19
2023-04-29T11:35:16.991Z,56.21
2023-04-29T11:37:45.813Z,57.10
2023-04-29T11:40:14.338Z,55.29
2023-04-29T11:42:43.794Z,55.31
2023-04-29T11:45:11.251Z,55.35
2023-04-29T11:47:38.611Z,54.93
2023-04-29T11:50:10.562Z,53.53
2023-04-29T11:52:39.433Z,53.42
2023-04-29T11:55:09.380Z,54.07
2023-04-29T11:57:42.002Z,53.91
2023-04-29T12:00:13.884Z,55.20
2023-04-29T12:02:45.425Z,55.91
2023-04-29T12:05:13.639Z,54.29
2023-04-29T12:07:41.106Z,55.47
2023-04-29T12:10:12.368Z,56.29
2023-04-29T12:12:47.576Z,56.26
2023-04-29T12:15:14.830Z,56.66
2023-04-29T12:17:43.292Z,57.85
2023-04-29T12:21:13.217Z,58.27
2023-04-29T12:23:41.810Z,57.18
2023-04-29T12:26:11.903Z,57.82
2023-04-29T12:28:42.031Z,59.27
2023-04-29T12:31:11.537Z,57.26
2023-04-29T12:33:38.650Z,59.28
2023-04-29T12:36:20.367Z,59.21
2023-04-29T12:38:48.897Z,56.49
2023-04-29T12:41:17.475Z,55.15
2023-04-29T12:43:44.719Z,55.65
2023-04-29T12:46:15.022Z,56.47
2023-04-29T12:48:44.104Z,56.94
2023-04-29T12:51:11.716Z,56.41
2023-04-29T12:53:39.212Z,53.77
2023-04-29T12:56:06.936Z,55.96
2023-04-29T12:58:35.148Z,52.91
2023-04-29T13:01:02.350Z,53.58
2023-04-29T13:03:29.624Z,53.59
2023-04-29T13:05:57.442Z,54.15
2023-04-29T13:08:27.488Z,52.77
2023-04-29T13:10:54.524Z,56.59
2023-04-29T13:13:21.807Z,55.26
2023-04-29T13:15:48.836Z,54.64
2023-04-29T13:18:15.998Z,54.14
2023-04-29T13:20:42.859Z,55.41
2023-04-29T13:23:36.667Z,54.30
2023-04-29T13:26:06.005Z,54.35
2023-04-29T13:28:33.018Z,53.65
2023-04-29T13:30:59.898Z,54.65
2023-04-29T13:33:29.006Z,51.87
2023-04-29T13:35:56.082Z,51.91
2023-04-29T13:38:23.063Z,53.09
2023-04-29T13:40:51.570Z,52.94
2023-04-29T13:43:26.511Z,52.76
2023-04-29T13:45:59.745Z,53.10
2023-04-29T13:53:51.304Z,55.19
2023-04-29T13:57:02.779Z,55.84
2023-04-29T14:04:19.150Z,56.48
2023-04-29T14:06:49.171Z,54.71
2023-04-29T14:09:17.056Z,54.45
2023-04-29T14:11:44.863Z,54.37
2023-04-29T14:14:11.675Z,55.06
2023-04-29T14:16:43.199Z,54.63
2023-04-29T14:19:12.958Z,53.62
2023-04-29T14:21:41.908Z,53.19
2023-04-29T14:24:13.740Z,54.37
2023-04-29T14:26:46.812Z,53.44
2023-04-29T14:29:24.009Z,53.91
2023-04-29T14:31:55.442Z,54.63
2023-04-29T14:34:23.303Z,54.23
2023-04-29T14:36:51.127Z,54.33
2023-04-29T14:39:18.584Z,54.35
2023-04-29T14:41:50.551Z,54.92
2023-04-29T14:44:18.537Z,54.05
2023-04-29T14:46:45.831Z,52.92
2023-04-29T14:49:14.789Z,52.99
2023-04-29T14:51:48.691Z,51.95
2023-04-29T14:54:18.475Z,53.79
2023-04-29T14:56:50.181Z,53.00
2023-04-29T14:59:22.042Z,53.59
2023-04-29T15:01:58.392Z,53.87
2023-04-29T15:04:56.147Z,53.66
2023-04-29T15:07:33.474Z,53.78
2023-04-29T15:10:27.500Z,52.99
2023-04-29T15:13:22.949Z,54.67
2023-04-29T15:15:50.008Z,53.70
2023-04-29T15:18:17.050Z,54.25
2023-04-29T15:20:44.561Z,53.65
2023-04-29T15:26:07.635Z,53.09
2023-04-29T15:28:48.480Z,53.17
2023-04-29T15:31:51.823Z,54.18
2023-04-29T15:34:09.263Z,53.80
2023-04-29T15:36:39.044Z,54.55
2023-04-29T15:39:11.118Z,53.96
2023-04-29T15:41:40.700Z,53.25
2023-04-29T15:44:44.296Z,54.38
2023-04-29T15:47:11.803Z,53.66
2023-04-29T15:50:09.365Z,53.29
2023-04-29T15:52:36.786Z,53.36
2023-04-29T15:56:09.386Z,54.45
2023-04-29T15:59:28.767Z,53.64
2023-04-29T16:02:03.542Z,52.85
2023-04-29T16:04:33.277Z,53.24
2023-04-29T16:07:07.861Z,54.10
2023-04-29T16:09:44.107Z,53.38
2023-04-29T16:12:14.451Z,54.48
2023-04-29T16:14:55.997Z,55.12
2023-04-29T16:17:33.633Z,54.95
2023-04-29T16:20:20.250Z,54.66
2023-04-29T16:22:57.609Z,54.87
2023-04-29T16:25:58.804Z,55.00
2023-04-29T16:28:33.317Z,55.52
2023-04-29T16:31:00.360Z,55.91
2023-04-29T16:33:27.469Z,56.19
2023-04-29T16:35:56.690Z,53.54
2023-04-29T16:38:25.867Z,52.64
2023-04-29T16:40:54.236Z,53.31
2023-04-29T16:43:23.556Z,53.03
2023-04-29T16:45:52.191Z,53.24
2023-04-29T16:48:19.212Z,53.23
2023-04-29T16:50:54.453Z,53.17
2023-04-29T16:53:21.798Z,54.65
2023-04-29T16:55:51.775Z,53.50
2023-04-29T16:58:41.948Z,54.16
2023-04-29T17:01:09.294Z,53.20
2023-04-29T17:03:37.516Z,53.57
2023-04-29T17:06:53.236Z,55.34
2023-04-29T17:09:26.176Z,52.96
2023-04-29T17:11:56.333Z,54.43
2023-04-29T17:14:34.598Z,54.08
2023-04-29T17:17:29.428Z,54.30
2023-04-29T17:19:58.868Z,52.57
2023-04-29T17:22:29.782Z,53.56
2023-04-29T17:24:57.452Z,53.80
2023-04-29T17:27:25.911Z,54.31
2023-04-29T17:29:53.255Z,53.42
2023-04-29T17:32:28.694Z,53.86
2023-04-29T17:34:57.836Z,54.04
2023-04-29T17:37:42.367Z,53.87
2023-04-29T17:40:16.426Z,55.15
2023-04-29T17:42:52.053Z,54.51
2023-04-29T17:45:27.450Z,54.69
2023-04-29T17:48:04.215Z,55.85
2023-04-29T17:50:39.689Z,55.64
2023-04-29T17:53:17.003Z,55.04
2023-04-29T17:55:58.735Z,55.15
2023-04-29T17:59:34.045Z,56.04
2023-04-29T18:01:56.640Z,57.08
2023-04-29T18:04:33.575Z,56.88
2023-04-29T18:07:23.522Z,56.26
2023-04-29T18:10:03.636Z,55.93
2023-04-29T18:12:38.230Z,55.86
2023-04-29T18:15:13.057Z,55.14
2023-04-29T18:17:42.646Z,56.35
2023-04-29T18:20:13.308Z,56.29
2023-04-29T18:22:40.444Z,58.72
2023-04-29T18:25:11.762Z,58.66
2023-04-29T18:27:38.818Z,58.23
2023-04-29T18:30:36.954Z,57.65
2023-04-29T18:32:56.276Z,58.94
2023-04-29T18:35:30.247Z,58.25
2023-04-29T18:38:02.644Z,58.73
2023-04-29T18:40:38.852Z,60.29
2023-04-29T18:43:11.868Z,61.40
2023-04-29T18:45:51.414Z,62.65
2023-04-29T18:48:29.907Z,60.52
2023-04-29T18:51:08.114Z,62.88
2023-04-29T18:53:37.175Z,59.13
2023-04-29T18:56:38.846Z,60.16
2023-04-29T18:59:11.535Z,59.55
2023-04-29T19:02:02.505Z,60.09
2023-04-29T19:04:32.461Z,59.61
2023-04-29T19:07:12.632Z,60.00
2023-04-29T19:10:29.263Z,60.15
2023-04-29T19:13:01.311Z,59.50
2023-04-29T19:15:35.845Z,59.74
2023-04-29T19:18:12.484Z,58.72
2023-04-29T19:21:00.426Z,58.78
2023-04-29T19:23:29.952Z,57.63
2023-04-29T19:25:56.792Z,58.29
2023-04-29T19:28:24.404Z,57.12
2023-04-29T19:30:53.337Z,57.95
2023-04-29T19:33:25.216Z,58.14
2023-04-29T19:35:52.039Z,58.92
2023-04-29T19:38:26.786Z,59.02
2023-04-29T19:41:10.770Z,59.30
2023-04-29T19:43:39.773Z,58.23
2023-04-29T19:46:11.802Z,58.59
2023-04-29T19:48:41.091Z,58.05
2023-04-29T19:51:10.876Z,57.97
2023-04-29T19:53:38.782Z,57.32
2023-04-29T19:56:05.704Z,58.49
2023-04-29T19:58:33.439Z,58.63
2023-04-29T20:01:00.233Z,57.94
2023-04-29T20:03:27.268Z,57.39
2023-04-29T20:05:55.283Z,58.96
2023-04-29T20:08:25.265Z,58.67
2023-04-29T20:10:54.747Z,57.96
2023-04-29T20:13:22.157Z,59.10
2023-04-29T20:15:49.084Z,61.40
2023-04-29T20:26:29.847Z,64.06
2023-04-29T20:28:59.912Z,63.95
2023-04-29T20:31:34.162Z,64.28
2023-04-29T20:34:05.425Z,63.78
2023-04-29T20:36:35.911Z,62.81
2023-04-29T20:39:05.623Z,65.75
2023-04-29T20:41:36.369Z,64.77
2023-04-29T20:44:04.765Z,64.47
2023-04-29T20:46:31.886Z,64.69
2023-04-29T20:49:14.610Z,64.09
2023-04-29T20:51:42.594Z,64.15
2023-04-29T20:54:16.973Z,65.16
2023-04-29T20:56:46.355Z,63.28
2023-04-29T20:59:21.441Z,63.47
2023-04-29T21:01:50.216Z,64.81
2023-04-29T21:04:21.277Z,65.08
2023-04-29T21:06:56.470Z,64.39
2023-04-29T21:09:25.806Z,63.22
2023-04-29T21:11:55.120Z,64.86
2023-04-29T21:14:22.323Z,64.82
2023-04-29T21:16:53.705Z,65.79
2023-04-29T21:19:24.369Z,66.06
2023-04-29T21:21:51.618Z,65.77
2023-04-29T21:24:23.908Z,65.85
2023-04-29T21:27:06.488Z,65.49
2023-04-29T21:29:34.939Z,65.69
2023-04-29T21:32:37.771Z,65.91
2023-04-29T21:34:55.518Z,65.24
2023-04-29T21:37:22.537Z,66.85
2023-04-29T21:39:55.799Z,67.13
2023-04-29T21:42:28.672Z,66.21
2023-04-29T21:44:57.647Z,65.69
2023-04-29T21:47:40.743Z,65.12
2023-04-29T21:50:09.328Z,65.25
2023-04-29T21:52:45.476Z,66.20
2023-04-29T21:55:15.314Z,66.06
2023-04-29T21:57:52.427Z,67.96
2023-04-29T22:00:33.543Z,65.80
2023-04-29T22:03:05.528Z,66.44
2023-04-29T22:05:39.761Z,66.08
2023-04-29T22:08:10.003Z,66.11
2023-04-29T22:10:41.763Z,65.92
2023-04-29T22:13:08.955Z,65.62
2023-04-29T22:15:35.808Z,65.77
2023-04-29T22:18:02.786Z,65.80
2023-04-29T22:20:30.257Z,65.50
2023-04-29T22:23:00.290Z,65.45
2023-04-29T22:25:27.322Z,66.46
2023-04-29T22:27:54.274Z,66.68
2023-04-29T22:30:21.165Z,66.29
2023-04-29T22:32:55.108Z,65.80
2023-04-29T22:35:22.211Z,66.09
2023-04-29T22:37:50.537Z,66.87
2023-04-29T22:40:17.921Z,66.79
2023-04-29T22:42:44.790Z,66.06
2023-04-29T22:45:12.658Z,66.13
2023-04-29T22:47:42.133Z,65.88
2023-04-29T22:50:10.304Z,67.05
2023-04-29T22:53:03.642Z,66.95
2023-04-29T22:55:32.583Z,67.34
2023-04-29T22:57:59.605Z,67.16
2023-04-29T23:00:28.738Z,66.46
2023-04-29T23:02:55.717Z,66.44
2023-04-29T23:05:24.703Z,66.74
2023-04-29T23:07:56.272Z,66.57
2023-04-29T23:10:23.101Z,67.48
2023-04-29T23:13:16.242Z,70.25
2023-04-29T23:15:43.488Z,69.23
2023-04-29T23:18:10.452Z,68.23
2023-04-29T23:20:37.532Z,68.01
2023-04-29T23:23:04.705Z,67.65
2023-04-29T23:25:31.794Z,68.01
2023-04-29T23:27:58.636Z,67.91
2023-04-29T23:30:25.749Z,69.96
2023-04-29T23:32:52.798Z,69.92
2023-04-29T23:35:19.722Z,69.26
2023-04-29T23:37:46.680Z,68.75
2023-04-29T23:40:16.002Z,68.51
2023-04-29T23:42:45.325Z,68.20
2023-04-29T23:45:12.176Z,68.08
2023-04-29T23:47:39.098Z,67.86
2023-04-29T23:50:06.859Z,67.83
2023-04-29T23:52:33.790Z,68.04
2023-04-29T23:55:09.483Z,67.94
2023-04-29T23:57:36.365Z,67.85
